PWSweather.com
Personal Weather Stations
Station Observations
KWIATHEL1
Marinette County, Athelstane, WI 54104

Marinette CountyAthelstane, WI 54104

Lat: 45.4, Lon: -88.12

Elevation: 960

Station Type: OS WM-918

http://weather.athelstanewi.com

Latest ConditionsUpdated 12:46:34 PM CDT Monday, Oct 20, 2014
Currently Today's Max Today's Min Today's Average
Temperature 49.6°F9.8°C 49.6°F9.8°C 39.7°F4.3°C 45.8°F7.7°C
Dew Point 42.4°F5.8°C 45.2°F7.3°C 36.2°F2.3°C 42.2°F5.7°C
Winds Calm Calm 8.1 mph W13.0 kmh W - 0.7 mph 1.1 kmh
Wind Gusts -- 8.7 mph14.0 kmh - -
Humidity 76% 92% 76% 87%
Pressure 29.86 in1011.2 mb 29.86 in1011.2 mb 29.72 in1006.4 mb -
Hour Temp Dew Point Humidity Winds Wind Gusts Pressure Precip Precip Rate Daily Precip Total
12:46 PM 49.6°F9.8°C 42.4°F5.8°C 76% Calm Calm -- 29.86 in1011.2 mb 0.00 in0.0 mm 0.00 in/hr0.0 mm/hr 0.00 in0.0 mm
12:32 PM 49.5°F9.7°C 42.9°F6.1°C 78% Calm Calm 6.0 mph9.7 kmh 29.86 in1011.2 mb 0.00 in0.0 mm 0.00 in/hr0.0 mm/hr 0.00 in0.0 mm
12:15 PM 49.3°F9.6°C 42.7°F5.9°C 78% Calm Calm -- 29.86 in1011.2 mb 0.00 in0.0 mm 0.00 in/hr0.0 mm/hr 0.00 in0.0 mm
12:04 PM 49.5°F9.7°C 42.9°F6.1°C 78% Calm Calm 6.7 mph10.8 kmh 29.86 in1011.2 mb 0.00 in0.0 mm 0.00 in/hr0.0 mm/hr 0.00 in0.0 mm
11:46 AM 49.5°F9.7°C 42.9°F6.1°C 78% Calm Calm 4.0 mph6.4 kmh 29.86 in1011.2 mb 0.00 in0.0 mm 0.00 in/hr0.0 mm/hr 0.00 in0.0 mm
11:30 AM 49.1°F9.5°C 42.6°F5.9°C 78% Calm Calm 4.0 mph6.4 kmh 29.86 in1011.2 mb 0.00 in0.0 mm 0.00 in/hr0.0 mm/hr 0.00 in0.0 mm
11:15 AM 48.9°F9.4°C 43.0°F6.1°C 80% Calm Calm 6.0 mph9.7 kmh 29.86 in1011.2 mb 0.00 in0.0 mm 0.00 in/hr0.0 mm/hr 0.00 in0.0 mm
11:00 AM 49.1°F9.5°C 43.9°F6.6°C 82% 7.4 mph WSW11.9 kmh WSW 7.4 mph11.9 kmh 29.86 in1011.2 mb 0.00 in0.0 mm 0.00 in/hr0.0 mm/hr 0.00 in0.0 mm
10:45 AM 48.9°F9.4°C 44.0°F6.7°C 83% Calm Calm 4.7 mph7.6 kmh 29.86 in1011.2 mb 0.00 in0.0 mm 0.00 in/hr0.0 mm/hr 0.00 in0.0 mm
10:30 AM 48.7°F9.3°C 44.4°F6.9°C 85% Calm Calm -- 29.86 in1011.2 mb 0.00 in0.0 mm 0.00 in/hr0.0 mm/hr 0.00 in0.0 mm
10:15 AM 48.6°F9.2°C 44.6°F7.0°C 86% Calm Calm -- 29.86 in1011.2 mb 0.00 in0.0 mm 0.00 in/hr0.0 mm/hr 0.00 in0.0 mm
10:00 AM 48.6°F9.2°C 45.2°F7.3°C 88% 8.1 mph W13.0 kmh W 8.1 mph13.0 kmh 29.83 in1010.2 mb 0.00 in0.0 mm 0.00 in/hr0.0 mm/hr 0.00 in0.0 mm
09:45 AM 48.2°F9.0°C 45.1°F7.3°C 89% 5.4 mph WNW8.7 kmh WNW 7.4 mph11.9 kmh 29.83 in1010.2 mb 0.00 in0.0 mm 0.00 in/hr0.0 mm/hr 0.00 in0.0 mm
09:30 AM 48.0°F8.9°C 45.2°F7.3°C 90% Calm Calm 4.7 mph7.6 kmh 29.83 in1010.2 mb 0.00 in0.0 mm 0.00 in/hr0.0 mm/hr 0.00 in0.0 mm
09:15 AM 47.7°F8.7°C 45.2°F7.3°C 91% Calm Calm -- 29.83 in1010.2 mb 0.00 in0.0 mm 0.00 in/hr0.0 mm/hr 0.00 in0.0 mm
09:00 AM 47.3°F8.5°C 44.8°F7.1°C 91% Calm Calm -- 29.83 in1010.2 mb 0.00 in0.0 mm 0.00 in/hr0.0 mm/hr 0.00 in0.0 mm
08:45 AM 46.9°F8.3°C 44.5°F6.9°C 91% Calm Calm -- 29.83 in1010.2 mb 0.00 in0.0 mm 0.00 in/hr0.0 mm/hr 0.00 in0.0 mm
08:30 AM 46.8°F8.2°C 44.3°F6.8°C 91% Calm Calm -- 29.83 in1010.2 mb 0.00 in0.0 mm 0.00 in/hr0.0 mm/hr 0.00 in0.0 mm
08:15 AM 46.8°F8.2°C 44.3°F6.8°C 91% Calm Calm -- 29.80 in1009.1 mb 0.00 in0.0 mm 0.00 in/hr0.0 mm/hr 0.00 in0.0 mm
08:00 AM 46.6°F8.1°C 44.1°F6.7°C 91% Calm Calm -- 29.80 in1009.1 mb 0.00 in0.0 mm 0.00 in/hr0.0 mm/hr 0.00 in0.0 mm
07:45 AM 46.4°F8.0°C 43.9°F6.6°C 91% Calm Calm -- 29.80 in1009.1 mb 0.00 in0.0 mm 0.00 in/hr0.0 mm/hr 0.00 in0.0 mm
07:30 AM 46.2°F7.9°C 43.7°F6.5°C 91% Calm Calm -- 29.80 in1009.1 mb 0.00 in0.0 mm 0.00 in/hr0.0 mm/hr 0.00 in0.0 mm
07:15 AM 46.0°F7.8°C 43.6°F6.4°C 91% Calm Calm -- 29.78 in1008.5 mb 0.00 in0.0 mm 0.00 in/hr0.0 mm/hr 0.00 in0.0 mm
07:00 AM 46.0°F7.8°C 43.6°F6.4°C 91% Calm Calm -- 29.78 in1008.5 mb 0.00 in0.0 mm 0.00 in/hr0.0 mm/hr 0.00 in0.0 mm
06:45 AM 45.9°F7.7°C 43.4°F6.3°C 91% Calm Calm -- 29.78 in1008.5 mb 0.00 in0.0 mm 0.00 in/hr0.0 mm/hr 0.00 in0.0 mm
06:30 AM 45.5°F7.5°C 43.0°F6.1°C 91% Calm Calm -- 29.78 in1008.5 mb 0.00 in0.0 mm 0.00 in/hr0.0 mm/hr 0.00 in0.0 mm
06:15 AM 45.3°F7.4°C 43.1°F6.2°C 92% Calm Calm -- 29.78 in1008.5 mb 0.00 in0.0 mm 0.00 in/hr0.0 mm/hr 0.00 in0.0 mm
06:01 AM 45.1°F7.3°C 43.0°F6.1°C 92% 5.4 mph WNW8.7 kmh WNW 5.4 mph8.7 kmh 29.78 in1008.5 mb 0.00 in0.0 mm 0.00 in/hr0.0 mm/hr 0.00 in0.0 mm
05:45 AM 44.6°F7.0°C 42.4°F5.8°C 92% Calm Calm -- 29.78 in1008.5 mb 0.00 in0.0 mm 0.00 in/hr0.0 mm/hr 0.00 in0.0 mm
05:30 AM 43.9°F6.6°C 41.4°F5.2°C 91% Calm Calm 5.4 mph8.7 kmh 29.75 in1007.5 mb 0.00 in0.0 mm 0.00 in/hr0.0 mm/hr 0.00 in0.0 mm
05:15 AM 43.3°F6.3°C 40.9°F4.9°C 91% Calm Calm 4.7 mph7.6 kmh 29.75 in1007.5 mb 0.00 in0.0 mm 0.00 in/hr0.0 mm/hr 0.00 in0.0 mm
05:00 AM 42.8°F6.0°C 40.4°F4.7°C 91% Calm Calm -- 29.75 in1007.5 mb 0.00 in0.0 mm 0.00 in/hr0.0 mm/hr 0.00 in0.0 mm
04:45 AM 42.3°F5.7°C 39.5°F4.2°C 90% 4.0 mph WSW6.4 kmh WSW 4.0 mph6.4 kmh 29.75 in1007.5 mb 0.00 in0.0 mm 0.00 in/hr0.0 mm/hr 0.00 in0.0 mm
04:30 AM 42.3°F5.7°C 39.3°F4.1°C 89% Calm Calm -- 29.75 in1007.5 mb 0.00 in0.0 mm 0.00 in/hr0.0 mm/hr 0.00 in0.0 mm
04:15 AM 42.3°F5.7°C 39.3°F4.1°C 89% 4.0 mph WNW6.4 kmh WNW 8.7 mph14.0 kmh 29.72 in1006.4 mb 0.00 in0.0 mm 0.00 in/hr0.0 mm/hr 0.00 in0.0 mm
04:00 AM 41.5°F5.3°C 38.6°F3.7°C 89% Calm Calm -- 29.72 in1006.4 mb 0.00 in0.0 mm 0.00 in/hr0.0 mm/hr 0.00 in0.0 mm
03:45 AM 39.7°F4.3°C 36.2°F2.3°C 87% Calm Calm -- 29.72 in1006.4 mb 0.00 in0.0 mm 0.00 in/hr0.0 mm/hr 0.00 in0.0 mm
03:30 AM 40.3°F4.6°C 36.4°F2.4°C 86% Calm Calm -- 29.72 in1006.4 mb 0.00 in0.0 mm 0.00 in/hr0.0 mm/hr 0.00 in0.0 mm
03:15 AM 41.4°F5.2°C 37.5°F3.1°C 86% Calm Calm -- 29.72 in1006.4 mb 0.00 in0.0 mm 0.00 in/hr0.0 mm/hr 0.00 in0.0 mm
03:00 AM 42.4°F5.8°C 38.6°F3.7°C 86% Calm Calm -- 29.72 in1006.4 mb 0.00 in0.0 mm 0.00 in/hr0.0 mm/hr 0.00 in0.0 mm
02:45 AM 43.7°F6.5°C 39.8°F4.3°C 86% Calm Calm -- 29.72 in1006.4 mb 0.00 in0.0 mm 0.00 in/hr0.0 mm/hr 0.00 in0.0 mm
02:30 AM 44.6°F7.0°C 41.0°F5.0°C 87% Calm Calm -- 29.72 in1006.4 mb 0.00 in0.0 mm 0.00 in/hr0.0 mm/hr 0.00 in0.0 mm
02:15 AM 45.1°F7.3°C 41.5°F5.3°C 87% Calm Calm -- 29.72 in1006.4 mb 0.00 in0.0 mm 0.00 in/hr0.0 mm/hr 0.00 in0.0 mm
02:00 AM 45.5°F7.5°C 41.9°F5.5°C 87% Calm Calm -- 29.72 in1006.4 mb 0.00 in0.0 mm 0.00 in/hr0.0 mm/hr 0.00 in0.0 mm
01:45 AM 45.7°F7.6°C 42.0°F5.6°C 87% Calm Calm -- 29.72 in1006.4 mb 0.00 in0.0 mm 0.00 in/hr0.0 mm/hr 0.00 in0.0 mm
01:30 AM 45.9°F7.7°C 42.2°F5.7°C 87% Calm Calm -- 29.72 in1006.4 mb 0.00 in0.0 mm 0.00 in/hr0.0 mm/hr 0.00 in0.0 mm
01:15 AM 45.9°F7.7°C 42.2°F5.7°C 87% Calm Calm 4.0 mph6.4 kmh 29.72 in1006.4 mb 0.00 in0.0 mm 0.00 in/hr0.0 mm/hr 0.00 in0.0 mm
01:00 AM 45.7°F7.6°C 42.0°F5.6°C 87% Calm Calm -- 29.72 in1006.4 mb 0.00 in0.0 mm 0.00 in/hr0.0 mm/hr 0.00 in0.0 mm
12:45 AM 45.5°F7.5°C 41.9°F5.5°C 87% Calm Calm 4.7 mph7.6 kmh 29.72 in1006.4 mb 0.00 in0.0 mm 0.00 in/hr0.0 mm/hr 0.00 in0.0 mm
12:30 AM 45.3°F7.4°C 41.7°F5.4°C 87% Calm Calm -- 29.72 in1006.4 mb 0.00 in0.0 mm 0.00 in/hr0.0 mm/hr 0.00 in0.0 mm
12:15 AM 45.0°F7.2°C 41.0°F5.0°C 86% 4.0 mph SSW6.4 kmh SSW 4.7 mph7.6 kmh 29.72 in1006.4 mb 0.00 in0.0 mm 0.00 in/hr0.0 mm/hr 0.00 in0.0 mm
12:00 AM 44.6°F7.0°C 40.4°F4.7°C 85% Calm Calm -- 29.72 in1006.4 mb 0.00 in0.0 mm 0.00 in/hr0.0 mm/hr 0.00 in0.0 mm